createdAt,value
2018-03-01T00:01:59.530Z,18.00
2018-03-01T00:04:29.244Z,17.90
2018-03-01T00:06:58.981Z,17.05
2018-03-01T00:09:28.714Z,20.15
2018-03-01T00:11:58.532Z,18.20
2018-03-01T00:14:28.242Z,18.83
2018-03-01T00:16:58.030Z,20.12
2018-03-01T00:19:27.749Z,18.23
2018-03-01T00:21:57.474Z,19.10
2018-03-01T00:24:27.188Z,19.40
2018-03-01T00:26:57.010Z,17.60
2018-03-01T00:29:26.770Z,18.08
2018-03-01T00:31:56.510Z,18.92
2018-03-01T00:34:26.221Z,17.30
2018-03-01T00:36:55.947Z,18.35
2018-03-01T00:39:25.662Z,17.40
2018-03-01T00:41:55.392Z,18.20
2018-03-01T00:44:25.126Z,18.25
2018-03-01T00:46:54.875Z,18.20
2018-03-01T00:49:24.793Z,19.40
2018-03-01T00:51:54.584Z,19.23
2018-03-01T00:54:24.297Z,14.57
2018-03-01T00:56:54.017Z,18.40
2018-03-01T00:59:23.789Z,18.25
2018-03-01T01:01:53.506Z,16.15
2018-03-01T01:04:23.273Z,16.42
2018-03-01T01:06:52.989Z,20.17
2018-03-01T01:09:22.742Z,18.40
2018-03-01T01:11:52.538Z,16.55
2018-03-01T01:14:22.273Z,17.42
2018-03-01T01:16:52.055Z,19.08
2018-03-01T01:19:21.918Z,18.95
2018-03-01T01:21:51.641Z,18.35
2018-03-01T01:24:21.411Z,19.50
2018-03-01T01:26:51.298Z,19.33
2018-03-01T01:29:21.025Z,18.83
2018-03-01T01:31:50.769Z,20.00
2018-03-01T01:34:20.526Z,20.00
2018-03-01T01:36:50.250Z,19.10
2018-03-01T01:39:19.986Z,20.45
2018-03-01T01:41:49.830Z,19.42
2018-03-01T01:44:19.565Z,18.42
2018-03-01T01:46:49.306Z,18.12
2018-03-01T01:49:19.023Z,19.25
2018-03-01T01:51:48.770Z,20.50
2018-03-01T01:54:18.505Z,18.10
2018-03-01T01:56:48.429Z,18.30
2018-03-01T01:59:18.134Z,18.75
2018-03-01T02:01:47.863Z,18.50
2018-03-01T02:04:17.651Z,19.83
2018-03-01T02:06:47.383Z,17.42
2018-03-01T02:09:17.147Z,17.98
2018-03-01T02:11:46.873Z,17.50
2018-03-01T02:14:16.597Z,16.45
2018-03-01T02:16:46.341Z,19.33
2018-03-01T02:19:16.094Z,18.62
2018-03-01T02:21:45.882Z,19.25
2018-03-01T02:24:15.616Z,18.33
2018-03-01T02:26:45.602Z,17.35
2018-03-01T02:29:15.326Z,19.30
2018-03-01T02:31:45.057Z,18.08
2018-03-01T02:34:14.865Z,18.70
2018-03-01T02:36:44.802Z,18.00
2018-03-01T02:39:14.529Z,17.35
2018-03-01T02:41:44.294Z,19.50
2018-03-01T02:44:14.197Z,17.05
2018-03-01T02:46:43.938Z,16.87
2018-03-01T02:49:13.654Z,17.83
2018-03-01T02:51:43.371Z,16.73
2018-03-01T02:54:13.095Z,16.87
2018-03-01T02:56:42.817Z,16.37
2018-03-01T02:59:12.666Z,17.12
2018-03-01T03:01:42.404Z,17.42
2018-03-01T03:04:12.134Z,17.55
2018-03-01T03:06:41.877Z,18.23
2018-03-01T03:09:11.690Z,17.58
2018-03-01T03:11:41.402Z,18.50
2018-03-01T03:14:11.138Z,15.80
2018-03-01T03:16:40.866Z,17.35
2018-03-01T03:19:10.646Z,18.98
2018-03-01T03:21:40.438Z,15.35
2018-03-01T03:24:10.171Z,16.65
2018-03-01T03:26:39.918Z,16.15
2018-03-01T03:29:09.637Z,18.20
2018-03-01T03:31:38.399Z,17.37
2018-03-01T03:34:08.196Z,17.50
2018-03-01T03:36:37.930Z,18.98
2018-03-01T03:39:07.533Z,16.90
2018-03-01T03:41:37.246Z,19.65
2018-03-01T03:44:06.981Z,19.90
2018-03-01T03:46:36.690Z,16.60
2018-03-01T03:49:06.464Z,18.77
2018-03-01T03:51:36.213Z,15.73
2018-03-01T03:54:06.005Z,19.37
2018-03-01T03:56:35.793Z,17.37
2018-03-01T03:59:05.501Z,14.73
2018-03-01T04:01:35.230Z,19.58
2018-03-01T04:04:04.971Z,17.27
2018-03-01T04:06:34.706Z,18.35
2018-03-01T04:09:04.074Z,18.12
2018-03-01T04:11:33.868Z,18.12
2018-03-01T04:14:03.602Z,18.02
2018-03-01T04:16:33.321Z,18.10
2018-03-01T04:19:03.081Z,18.27
2018-03-01T04:21:32.811Z,17.85
2018-03-01T04:24:02.551Z,19.95
2018-03-01T04:26:32.275Z,20.55
2018-03-01T04:29:02.006Z,20.23
2018-03-01T04:31:31.878Z,19.92
2018-03-01T04:34:01.685Z,20.20
2018-03-01T04:36:31.392Z,18.37
2018-03-01T04:39:01.119Z,21.17
2018-03-01T04:41:30.988Z,19.45
2018-03-01T04:44:00.722Z,17.08
2018-03-01T04:46:30.438Z,19.90
2018-03-01T04:49:00.158Z,18.15
2018-03-01T04:51:29.874Z,20.65
2018-03-01T04:53:59.597Z,19.83
2018-03-01T04:56:29.333Z,18.50
2018-03-01T04:58:59.057Z,19.42
2018-03-01T05:01:28.797Z,16.55
2018-03-01T05:03:58.532Z,19.40
2018-03-01T05:06:28.265Z,18.10
2018-03-01T05:08:57.985Z,17.55
2018-03-01T05:11:27.523Z,20.15
2018-03-01T05:13:57.259Z,18.23
2018-03-01T05:16:26.995Z,19.20
2018-03-01T05:18:56.789Z,17.45
2018-03-01T05:21:26.511Z,18.55
2018-03-01T05:23:56.224Z,19.85
2018-03-01T05:26:26.158Z,18.15
2018-03-01T05:28:55.870Z,16.98
2018-03-01T05:31:25.591Z,19.98
2018-03-01T05:33:55.330Z,18.35
2018-03-01T05:36:25.046Z,17.65
2018-03-01T05:38:54.775Z,18.48
2018-03-01T05:41:24.325Z,20.05
2018-03-01T05:43:54.077Z,18.80
2018-03-01T05:46:23.793Z,17.35
2018-03-01T05:48:53.538Z,19.70
2018-03-01T05:51:23.362Z,18.02
2018-03-01T05:53:53.094Z,19.15
2018-03-01T05:56:22.806Z,19.60
2018-03-01T05:58:52.526Z,17.98
2018-03-01T06:01:22.317Z,19.25
2018-03-01T06:03:52.207Z,19.92
2018-03-01T06:06:21.922Z,19.10
2018-03-01T06:08:51.650Z,20.08
2018-03-01T06:11:21.366Z,18.48
2018-03-01T06:13:51.102Z,18.75
2018-03-01T06:16:21.050Z,19.90
2018-03-01T06:18:50.774Z,20.27
2018-03-01T06:21:20.501Z,17.80
2018-03-01T06:23:50.209Z,17.90
2018-03-01T06:26:20.146Z,18.35
2018-03-01T06:28:49.858Z,16.90
2018-03-01T06:31:19.670Z,18.90
2018-03-01T06:33:49.422Z,18.40
2018-03-01T06:36:19.149Z,19.20
2018-03-01T06:38:48.887Z,17.92
2018-03-01T06:41:18.594Z,20.05
2018-03-01T06:43:48.326Z,18.52
2018-03-01T06:46:18.039Z,19.12
2018-03-01T06:48:47.761Z,20.00
2018-03-01T06:51:17.174Z,17.50
2018-03-01T06:53:46.995Z,20.12
2018-03-01T06:56:16.760Z,19.80
2018-03-01T06:58:46.498Z,17.62
2018-03-01T07:01:16.267Z,19.55
2018-03-01T07:03:45.985Z,21.35
2018-03-01T07:06:15.733Z,18.73
2018-03-01T07:08:45.454Z,21.55
2018-03-01T07:11:15.166Z,21.45
2018-03-01T07:13:45.101Z,19.37
2018-03-01T07:16:14.821Z,18.35
2018-03-01T07:18:44.563Z,19.35
2018-03-01T07:21:14.275Z,20.00
2018-03-01T07:23:44.010Z,18.60
2018-03-01T07:26:13.726Z,17.55
2018-03-01T07:28:43.442Z,17.27
2018-03-01T07:31:13.027Z,18.90
2018-03-01T07:33:42.790Z,22.83
2018-03-01T07:36:12.625Z,19.23
2018-03-01T07:38:42.290Z,21.90
2018-03-01T07:41:12.073Z,21.58
2018-03-01T07:43:41.800Z,20.90
2018-03-01T07:46:11.599Z,18.45
2018-03-01T07:48:41.310Z,19.42
2018-03-01T07:51:11.330Z,20.70
2018-03-01T07:53:41.042Z,21.15
2018-03-01T07:56:10.884Z,19.58
2018-03-01T07:58:40.609Z,18.40
2018-03-01T08:01:10.328Z,20.48
2018-03-01T08:03:40.082Z,20.95
2018-03-01T08:06:09.796Z,21.23
2018-03-01T08:08:39.550Z,19.45
2018-03-01T08:11:09.274Z,20.42
2018-03-01T08:13:39.126Z,21.65
2018-03-01T08:16:08.873Z,20.75
2018-03-01T08:18:38.602Z,21.00
2018-03-01T08:21:08.326Z,19.40
2018-03-01T08:23:38.057Z,19.37
2018-03-01T08:26:07.912Z,20.48
2018-03-01T08:28:37.651Z,19.70
2018-03-01T08:31:07.632Z,20.08
2018-03-01T08:33:37.379Z,21.55
2018-03-01T08:36:07.097Z,19.30
2018-03-01T08:38:36.823Z,21.25
2018-03-01T08:41:06.551Z,20.20
2018-03-01T08:43:36.278Z,21.60
2018-03-01T08:46:06.001Z,22.00
2018-03-01T08:48:35.726Z,20.33
2018-03-01T08:51:05.475Z,20.30
2018-03-01T08:53:35.222Z,21.85
2018-03-01T08:56:04.944Z,19.73
2018-03-01T08:58:34.359Z,20.85
2018-03-01T09:01:04.092Z,19.50
2018-03-01T09:03:33.820Z,19.00
2018-03-01T09:06:03.557Z,21.60
2018-03-01T09:08:32.252Z,21.73
2018-03-01T09:11:01.383Z,21.00
2018-03-01T09:13:30.873Z,21.42
2018-03-01T09:16:00.379Z,22.67
2018-03-01T09:18:29.938Z,19.70
2018-03-01T09:20:58.687Z,20.12
2018-03-01T09:23:28.215Z,20.40
2018-03-01T09:25:56.927Z,20.67
2018-03-01T09:28:25.659Z,20.08
2018-03-01T09:30:54.778Z,21.83
2018-03-01T09:33:23.717Z,20.50
2018-03-01T09:35:52.463Z,21.00
2018-03-01T09:38:21.193Z,19.85
2018-03-01T09:40:49.559Z,20.92
2018-03-01T09:43:18.318Z,21.20
2018-03-01T09:45:47.057Z,20.42
2018-03-01T09:48:15.784Z,20.30
2018-03-01T09:50:45.355Z,21.37
2018-03-01T09:53:14.087Z,18.58
2018-03-01T09:55:42.823Z,19.45
2018-03-01T09:58:11.370Z,20.25
2018-03-01T10:00:40.102Z,20.90
2018-03-01T10:03:09.822Z,21.17
2018-03-01T10:05:38.551Z,22.50
2018-03-01T10:08:07.263Z,20.23
2018-03-01T10:10:36.087Z,20.40
2018-03-01T10:13:04.482Z,22.52
2018-03-01T10:15:33.304Z,21.20
2018-03-01T10:18:02.095Z,23.30
2018-03-01T10:20:30.954Z,21.33
2018-03-01T10:22:59.683Z,22.70
2018-03-01T10:25:28.398Z,22.10
2018-03-01T10:27:58.177Z,20.77
2018-03-01T10:30:28.058Z,22.80
2018-03-01T10:32:57.783Z,20.65
2018-03-01T10:35:26.891Z,22.30
2018-03-01T10:37:55.630Z,21.08
2018-03-01T10:40:24.343Z,20.42
2018-03-01T10:42:53.893Z,22.55
2018-03-01T10:45:22.781Z,20.05
2018-03-01T10:47:51.511Z,22.55
2018-03-01T10:50:20.243Z,23.48
2018-03-01T10:52:49.974Z,18.95
2018-03-01T10:55:20.147Z,20.73
2018-03-01T10:57:49.878Z,19.83
2018-03-01T11:00:25.290Z,21.75
2018-03-01T11:02:55.035Z,21.58
2018-03-01T11:05:24.781Z,22.62
2018-03-01T11:07:54.534Z,20.80
2018-03-01T11:10:24.262Z,22.17
2018-03-01T11:12:54.003Z,22.75
2018-03-01T11:15:23.734Z,22.20
2018-03-01T11:17:53.565Z,21.42
2018-03-01T11:20:23.119Z,21.33
2018-03-01T11:22:52.650Z,21.52
2018-03-01T11:25:21.768Z,23.15
2018-03-01T11:27:50.475Z,21.60
2018-03-01T11:30:19.207Z,21.37
2018-03-01T11:32:48.699Z,21.55
2018-03-01T11:35:18.914Z,22.05
2018-03-01T11:37:48.714Z,19.35
2018-03-01T11:40:18.534Z,22.92
2018-03-01T11:42:47.764Z,21.67
2018-03-01T11:45:17.234Z,21.92
2018-03-01T11:47:45.963Z,21.70
2018-03-01T11:50:15.774Z,22.08
2018-03-01T11:52:45.505Z,22.20
2018-03-01T11:55:15.247Z,21.67
2018-03-01T11:57:44.966Z,23.35
2018-03-01T12:00:14.710Z,22.50
2018-03-01T12:02:44.430Z,22.60
2018-03-01T12:05:14.150Z,21.20
2018-03-01T12:07:43.877Z,22.87
2018-03-01T12:10:13.633Z,23.12
2018-03-01T12:12:43.342Z,22.25
2018-03-01T12:15:13.194Z,22.45
2018-03-01T12:17:42.919Z,24.30
2018-03-01T12:20:12.647Z,24.23
2018-03-01T12:22:42.494Z,23.27
2018-03-01T12:25:12.253Z,24.02
2018-03-01T12:27:40.955Z,22.17
2018-03-01T12:30:10.759Z,23.62
2018-03-01T12:32:40.480Z,23.98
2018-03-01T12:35:10.214Z,22.65
2018-03-01T12:37:39.938Z,23.60
2018-03-01T12:40:09.679Z,22.73
2018-03-01T12:42:39.595Z,24.80
2018-03-01T12:45:09.492Z,22.83
2018-03-01T12:47:39.212Z,24.77
2018-03-01T12:50:09.003Z,22.52
2018-03-01T12:52:37.527Z,23.05
2018-03-01T12:55:06.834Z,23.08
2018-03-01T12:57:35.414Z,23.85
2018-03-01T13:00:03.600Z,24.83
2018-03-01T13:02:32.150Z,21.98
2018-03-01T13:05:02.372Z,23.98
2018-03-01T13:07:30.910Z,24.60
2018-03-01T13:09:59.426Z,24.33
2018-03-01T13:12:28.004Z,24.05
2018-03-01T13:14:56.714Z,22.77
2018-03-01T13:17:26.039Z,22.70
2018-03-01T13:19:55.318Z,22.52
2018-03-01T13:22:25.455Z,21.98
2018-03-01T13:24:54.744Z,22.90
2018-03-01T13:27:23.309Z,22.42
2018-03-01T13:29:52.016Z,22.60
2018-03-01T13:32:27.187Z,22.75
2018-03-01T13:34:55.725Z,22.60
2018-03-01T13:37:24.241Z,22.77
2018-03-01T13:39:52.788Z,23.30
2018-03-01T13:42:27.894Z,23.10
2018-03-01T13:44:57.429Z,19.65
2018-03-01T13:47:43.674Z,23.58
2018-03-01T13:50:13.210Z,22.00
2018-03-01T13:52:42.945Z,21.95
2018-03-01T13:55:12.484Z,24.92
2018-03-01T13:57:42.213Z,23.25
2018-03-01T14:00:11.787Z,24.00
2018-03-01T14:02:41.328Z,24.08
2018-03-01T14:05:10.934Z,23.20
2018-03-01T14:07:42.414Z,22.25
2018-03-01T14:10:11.967Z,23.00
2018-03-01T14:12:58.350Z,22.23
2018-03-01T14:15:27.893Z,24.30
2018-03-01T14:17:57.432Z,22.23
2018-03-01T14:20:30.841Z,23.17
2018-03-01T14:23:15.249Z,22.60
2018-03-01T14:25:44.807Z,22.67
2018-03-01T14:28:15.130Z,23.05
2018-03-01T14:30:44.674Z,21.90
2018-03-01T14:33:14.382Z,23.58
2018-03-01T14:35:44.128Z,24.10
2018-03-01T14:38:13.860Z,23.38
2018-03-01T14:40:43.579Z,23.98
2018-03-01T14:43:13.356Z,22.83
2018-03-01T14:45:43.087Z,23.62
2018-03-01T14:48:12.855Z,21.90
2018-03-01T14:50:42.595Z,23.62
2018-03-01T14:53:12.298Z,25.40
2018-03-01T14:55:42.204Z,23.48
2018-03-01T14:58:11.942Z,23.35
2018-03-01T15:00:41.668Z,24.42
2018-03-01T15:03:11.412Z,22.85
2018-03-01T15:05:41.158Z,22.75
2018-03-01T15:08:10.981Z,23.12
2018-03-01T15:10:40.897Z,24.00
2018-03-01T15:13:10.631Z,23.95
2018-03-01T15:15:40.372Z,24.15
2018-03-01T15:18:10.129Z,22.23
2018-03-01T15:20:39.868Z,23.42
2018-03-01T15:23:09.578Z,24.50
2018-03-01T15:25:39.301Z,24.73
2018-03-01T15:28:09.286Z,21.70
2018-03-01T15:30:39.035Z,24.98
2018-03-01T15:33:08.820Z,21.58
2018-03-01T15:35:38.560Z,20.73
2018-03-01T15:38:08.283Z,23.33
2018-03-01T15:40:38.024Z,22.42
2018-03-01T15:43:07.730Z,22.98
2018-03-01T15:45:37.476Z,22.67
2018-03-01T15:48:07.216Z,22.95
2018-03-01T15:50:37.208Z,21.83
2018-03-01T15:53:06.933Z,23.92
2018-03-01T15:55:36.651Z,25.90
2018-03-01T15:58:06.490Z,23.48
2018-03-01T16:00:36.210Z,24.05
2018-03-01T16:03:05.960Z,23.55
2018-03-01T16:05:35.715Z,22.00
2018-03-01T16:08:05.659Z,22.87
2018-03-01T16:10:35.405Z,21.67
2018-03-01T16:13:05.174Z,23.55
2018-03-01T16:15:34.926Z,22.52
2018-03-01T16:18:04.456Z,23.85
2018-03-01T16:20:34.222Z,23.83
2018-03-01T16:23:04.060Z,22.65
2018-03-01T16:25:33.796Z,22.80
2018-03-01T16:28:03.523Z,22.58
2018-03-01T16:30:33.507Z,24.50
2018-03-01T16:33:03.250Z,24.42
2018-03-01T16:35:32.989Z,22.98
2018-03-01T16:38:02.743Z,23.40
2018-03-01T16:40:32.461Z,22.33
2018-03-01T16:43:02.186Z,25.67
2018-03-01T16:45:31.983Z,22.60
2018-03-01T16:48:01.856Z,22.70
2018-03-01T16:50:31.402Z,24.00
2018-03-01T16:53:01.129Z,23.67
2018-03-01T16:55:30.861Z,23.60
2018-03-01T16:58:00.583Z,24.00
2018-03-01T17:00:30.350Z,22.40
2018-03-01T17:03:00.206Z,23.12
2018-03-01T17:05:30.095Z,24.42
2018-03-01T17:07:59.847Z,25.15
2018-03-01T17:10:29.588Z,24.08
2018-03-01T17:12:59.307Z,23.70
2018-03-01T17:15:29.044Z,24.15
2018-03-01T17:17:58.791Z,21.83
2018-03-01T17:20:28.524Z,22.92
2018-03-01T17:22:58.254Z,22.98
2018-03-01T17:25:28.055Z,21.20
2018-03-01T17:27:57.813Z,21.23
2018-03-01T17:30:27.578Z,21.83
2018-03-01T17:32:57.314Z,22.67
2018-03-01T17:35:27.079Z,22.95
2018-03-01T17:37:56.810Z,23.20
2018-03-01T17:40:26.550Z,22.73
2018-03-01T17:42:56.351Z,22.30
2018-03-01T17:45:26.095Z,21.45
2018-03-01T17:47:55.900Z,20.20
2018-03-01T17:50:25.697Z,20.80
2018-03-01T17:52:55.458Z,21.85
2018-03-01T17:55:25.274Z,20.98
2018-03-01T17:57:55.045Z,21.10
2018-03-01T18:00:24.787Z,21.67
2018-03-01T18:02:54.530Z,25.85
2018-03-01T18:05:24.290Z,25.77
2018-03-01T18:07:54.028Z,23.55
2018-03-01T18:10:23.803Z,22.05
2018-03-01T18:12:53.560Z,19.95
2018-03-01T18:15:23.287Z,22.10
2018-03-01T18:17:53.194Z,23.77
2018-03-01T18:20:22.979Z,22.25
2018-03-01T18:22:52.743Z,21.98
2018-03-01T18:25:22.500Z,22.52
2018-03-01T18:27:52.267Z,23.30
2018-03-01T18:30:22.002Z,23.05
2018-03-01T18:32:51.765Z,23.62
2018-03-01T18:35:21.557Z,24.92
2018-03-01T18:37:51.309Z,22.37
2018-03-01T18:40:21.052Z,23.65
2018-03-01T18:42:50.811Z,22.75
2018-03-01T18:45:20.570Z,22.42
2018-03-01T18:47:50.429Z,24.15
2018-03-01T18:50:20.183Z,22.65
2018-03-01T18:52:49.939Z,23.12
2018-03-01T18:55:19.670Z,24.52
2018-03-01T18:57:49.445Z,24.05
2018-03-01T19:00:19.329Z,25.62
2018-03-01T19:02:49.147Z,23.40
2018-03-01T19:05:18.880Z,25.10
2018-03-01T19:07:48.642Z,23.25
2018-03-01T19:10:18.376Z,22.48
2018-03-01T19:12:48.181Z,22.92
2018-03-01T19:15:17.915Z,21.45
2018-03-01T19:17:47.650Z,24.67
2018-03-01T19:20:17.381Z,25.73
2018-03-01T19:22:47.130Z,24.23
2018-03-01T19:25:16.849Z,22.50
2018-03-01T19:27:46.602Z,21.15
2018-03-01T19:30:16.329Z,23.10
2018-03-01T19:32:46.075Z,22.17
2018-03-01T19:35:15.810Z,26.00
2018-03-01T19:37:45.535Z,23.98
2018-03-01T19:40:15.287Z,24.10
2018-03-01T19:42:44.990Z,23.85
2018-03-01T19:45:14.722Z,24.02
2018-03-01T19:47:44.435Z,21.33
2018-03-01T19:50:14.168Z,22.67
2018-03-01T19:52:43.906Z,21.58
2018-03-01T19:55:13.662Z,24.83
2018-03-01T19:57:43.402Z,23.60
2018-03-01T20:00:13.135Z,22.65
2018-03-01T20:02:42.873Z,23.55
2018-03-01T20:05:12.603Z,25.02
2018-03-01T20:07:42.371Z,23.12
2018-03-01T20:10:12.074Z,24.23
2018-03-01T20:12:41.812Z,25.40
2018-03-01T20:15:11.519Z,24.12
2018-03-01T20:17:41.274Z,25.08
2018-03-01T20:20:10.993Z,23.90
2018-03-01T20:22:40.727Z,24.80
2018-03-01T20:25:10.468Z,24.37
2018-03-01T20:27:40.207Z,25.27
2018-03-01T20:30:09.971Z,24.30
2018-03-01T20:32:39.754Z,25.10
2018-03-01T20:35:09.490Z,24.23
2018-03-01T20:37:39.277Z,31.67
2018-03-01T20:40:09.052Z,26.58
2018-03-01T20:42:38.782Z,24.37
2018-03-01T20:45:08.510Z,24.25
2018-03-01T20:47:38.242Z,24.25
2018-03-01T20:50:07.954Z,26.00
2018-03-01T20:52:37.699Z,24.02
2018-03-01T20:55:07.414Z,24.17
2018-03-01T20:57:37.154Z,25.50
2018-03-01T21:00:06.857Z,24.98
2018-03-01T21:02:36.585Z,25.35
2018-03-01T21:05:06.417Z,23.85
2018-03-01T21:07:36.159Z,25.02
2018-03-01T21:10:05.890Z,27.08
2018-03-01T21:12:35.602Z,24.35
2018-03-01T21:15:05.331Z,24.55
2018-03-01T21:17:35.046Z,27.00
2018-03-01T21:20:04.467Z,25.20
2018-03-01T21:22:34.213Z,26.40
2018-03-01T21:25:03.937Z,27.08
2018-03-01T21:27:33.666Z,26.92
2018-03-01T21:30:03.372Z,24.10
2018-03-01T21:32:33.097Z,25.77
2018-03-01T21:35:02.819Z,25.88
2018-03-01T21:37:32.571Z,25.95
2018-03-01T21:40:02.287Z,25.45
2018-03-01T21:42:33.049Z,25.20
2018-03-01T21:45:02.803Z,27.08
2018-03-01T21:47:32.540Z,26.55
2018-03-01T21:50:02.295Z,26.77
2018-03-01T21:52:32.037Z,25.08
2018-03-01T21:55:01.769Z,26.05
2018-03-01T21:57:31.586Z,24.98
2018-03-01T22:00:01.314Z,25.75
2018-03-01T22:02:31.047Z,27.00
2018-03-01T22:05:00.832Z,27.02
2018-03-01T22:07:30.592Z,28.50
2018-03-01T22:10:00.070Z,25.35
2018-03-01T22:12:28.811Z,26.05
2018-03-01T22:14:57.527Z,27.27
2018-03-01T22:17:26.718Z,27.17
2018-03-01T22:19:55.422Z,26.77
2018-03-01T22:22:24.560Z,29.05
2018-03-01T22:24:53.683Z,28.15
2018-03-01T22:27:22.815Z,28.08
2018-03-01T22:29:51.536Z,27.05
2018-03-01T22:32:21.288Z,27.02
2018-03-01T22:34:50.943Z,26.98
2018-03-01T22:37:20.422Z,30.35
2018-03-01T22:39:49.534Z,27.30
2018-03-01T22:42:19.261Z,28.20
2018-03-01T22:44:48.420Z,27.55
2018-03-01T22:47:17.560Z,26.92
2018-03-01T22:49:46.695Z,26.37
2018-03-01T22:52:15.821Z,28.38
2018-03-01T22:54:44.523Z,26.67
2018-03-01T22:57:13.641Z,28.77
2018-03-01T22:59:42.754Z,27.30
2018-03-01T23:02:11.483Z,27.65
2018-03-01T23:04:40.699Z,28.40
2018-03-01T23:07:09.444Z,27.73
2018-03-01T23:09:38.610Z,27.48
2018-03-01T23:12:07.744Z,27.77
2018-03-01T23:14:36.455Z,27.52
2018-03-01T23:17:05.583Z,28.83
2018-03-01T23:19:34.691Z,28.08
2018-03-01T23:22:04.181Z,27.42
2018-03-01T23:24:33.670Z,28.62
2018-03-01T23:27:02.383Z,31.00
2018-03-01T23:29:31.496Z,28.70
2018-03-01T23:32:00.800Z,28.80
2018-03-01T23:34:30.287Z,29.10
2018-03-01T23:37:00.499Z,27.92
2018-03-01T23:39:29.677Z,28.90
2018-03-01T23:41:58.775Z,29.27
2018-03-01T23:44:27.171Z,31.48
2018-03-01T23:46:57.383Z,29.35
2018-03-01T23:49:26.579Z,30.85
2018-03-01T23:51:55.679Z,31.17
2018-03-01T23:54:24.801Z,31.75
2018-03-01T23:56:54.538Z,32.47
2018-03-01T23:59:24.273Z,30.85
